Time;durP1;ratioP1;P1;durP2;ratioP2;P2;SDS_P1;SDS_P2;PMS_P1;PMS_P2;Temp;Humidity;BMP_temperature;BMP_pressure;BME280_temperature;BME280_humidity;BME280_pressure;Samples;Min_cycle;Max_cycle;Signal;HPM_P1;HPM_P2
2021/08/02 00:00:50;;;;;;;3.63;2.68;;;;;;;15.65;76.82;98922.65;254805;1103;115479;-65
2021/08/02 00:05:58;;;;;;;2.45;2.30;;;;;;;15.64;76.65;98929.11;255131;1103;115690;-66
2021/08/02 00:11:16;;;;;;;2.20;2.05;;;;;;;15.62;76.36;98925.11;254271;1104;114884;-66
2021/08/02 00:16:19;;;;;;;2.70;2.50;;;;;;;15.60;76.85;98925.39;255048;1100;115278;-66
2021/08/02 00:21:22;;;;;;;4.55;2.83;;;;;;;15.55;76.77;98928.13;254379;1104;115470;-65
2021/08/02 00:26:26;;;;;;;2.48;2.28;;;;;;;15.54;76.86;98929.22;254878;1104;117325;-65
2021/08/02 00:31:30;;;;;;;2.00;1.93;;;;;;;15.53;76.95;98930.30;254379;1100;116526;-65
2021/08/02 00:36:54;;;;;;;2.80;1.68;;;;;;;15.50;76.69;98937.05;255300;1104;116805;-65
2021/08/02 00:42:15;;;;;;;1.93;1.83;;;;;;;15.56;76.77;98936.99;255665;1104;116064;-66
2021/08/02 00:47:23;;;;;;;2.08;1.93;;;;;;;15.49;76.45;98946.19;255397;1103;116060;-65
2021/08/02 00:52:27;;;;;;;2.75;2.55;;;;;;;15.49;76.48;98937.33;256423;1103;115265;-64
2021/08/02 00:57:36;;;;;;;3.13;2.93;;;;;;;15.40;76.48;98923.72;256729;1104;115669;-65
2021/08/02 01:02:43;;;;;;;1.83;1.73;;;;;;;15.39;77.12;98932.86;254404;1096;116385;-65
2021/08/02 01:08:01;;;;;;;2.70;2.48;;;;;;;15.39;76.76;98926.69;256945;1103;116527;-65
2021/08/02 01:13:08;;;;;;;7.33;2.95;;;;;;;15.40;76.88;98923.72;257285;1104;116428;-65
2021/08/02 01:18:13;;;;;;;3.40;2.83;;;;;;;15.45;77.02;98922.87;257030;1104;116315;-65
2021/08/02 01:23:17;;;;;;;7.80;3.13;;;;;;;15.43;76.90;98916.98;255482;1104;116402;-65
2021/08/02 01:28:20;;;;;;;3.73;3.43;;;;;;;15.44;77.00;98924.75;256174;1103;115847;-65
2021/08/02 01:33:29;;;;;;;4.55;4.00;;;;;;;15.42;76.90;98926.92;254517;1096;116264;-65
2021/08/02 01:38:34;;;;;;;8.10;4.88;;;;;;;15.41;77.34;98932.58;254699;1104;116685;-65
2021/08/02 01:43:38;;;;;;;6.00;4.63;;;;;;;15.35;77.57;98931.03;254598;1103;116728;-66
2021/08/02 01:48:41;;;;;;;6.73;5.80;;;;;;;15.37;77.45;98931.55;254577;1104;116769;-65
2021/08/02 01:54:08;;;;;;;5.83;5.25;;;;;;;15.36;77.47;98929.95;255226;1103;117739;-65
2021/08/02 01:59:20;;;;;;;6.58;5.93;;;;;;;15.36;77.82;98932.63;254230;1104;116500;-66
2021/08/02 02:04:49;;;;;;;7.25;6.10;;;;;;;15.38;77.88;98930.46;254928;1104;116716;-64
2021/08/02 02:09:56;;;;;;;12.93;6.15;;;;;;;15.43;78.11;98922.35;254579;1104;115675;-67
2021/08/02 02:15:02;;;;;;;10.73;7.43;;;;;;;15.47;77.95;98918.81;254129;1104;115697;-65
2021/08/02 02:20:06;;;;;;;9.05;6.63;;;;;;;15.52;78.05;98923.33;255180;1104;117511;-65
2021/08/02 02:25:11;;;;;;;14.53;6.90;;;;;;;15.52;78.28;98930.59;255168;1104;116553;-66
2021/08/02 02:30:15;;;;;;;7.20;6.50;;;;;;;15.46;77.97;98937.90;254393;1104;115802;-65
2021/08/02 02:35:21;;;;;;;8.25;7.45;;;;;;;15.46;78.38;98937.90;254373;1097;117386;-65
2021/08/02 02:40:26;;;;;;;8.17;7.47;;;;;;;15.44;78.38;98934.70;255187;1098;116775;-65
2021/08/02 02:45:32;;;;;;;8.18;7.45;;;;;;;15.49;78.45;98948.08;255242;1103;115864;-65
2021/08/02 02:50:36;;;;;;;10.40;8.88;;;;;;;15.53;78.26;98949.11;256164;1103;115651;-65
2021/08/02 02:55:42;;;;;;;16.58;9.10;;;;;;;15.59;78.50;98949.88;255663;1104;116848;-66
2021/08/02 03:00:48;;;;;;;10.45;8.60;;;;;;;15.62;77.98;98960.83;256479;1104;117734;-67
2021/08/02 03:05:55;;;;;;;10.53;7.30;;;;;;;15.61;78.56;98953.06;256814;1103;115304;-65
2021/08/02 03:11:02;;;;;;;11.03;9.93;;;;;;;15.59;78.38;98953.38;257087;1102;115609;-66
2021/08/02 03:16:06;;;;;;;9.30;7.23;;;;;;;15.64;78.14;98961.34;257153;1103;115660;-66
2021/08/02 03:21:14;;;;;;;16.73;10.80;;;;;;;15.64;78.60;98965.92;257195;1103;115479;-66
2021/08/02 03:26:46;;;;;;;16.03;11.48;;;;;;;15.69;78.45;98966.67;256639;1103;115187;-65
2021/08/02 03:32:10;;;;;;;15.30;12.18;;;;;;;15.75;78.46;98972.78;255172;1104;116409;-65
2021/08/02 03:37:16;;;;;;;12.83;10.00;;;;;;;15.78;78.52;98972.22;256080;1103;116366;-66
2021/08/02 03:42:21;;;;;;;11.58;10.30;;;;;;;15.77;78.51;98976.78;255286;1102;115774;-65
2021/08/02 03:47:26;;;;;;;15.30;13.03;;;;;;;15.79;78.75;98977.30;255077;1103;115827;-66
2021/08/02 03:52:30;;;;;;;12.43;11.10;;;;;;;15.88;78.95;98973.98;254599;1104;115704;-66
2021/08/02 03:57:34;;;;;;;16.90;13.25;;;;;;;15.97;78.70;98988.37;255180;1104;116148;-67
2021/08/02 04:02:38;;;;;;;17.93;13.47;;;;;;;15.96;78.71;99001.00;255187;1097;116918;-66
2021/08/02 04:07:42;;;;;;;16.00;13.10;;;;;;;15.96;78.83;99000.20;253990;1104;115933;-66
2021/08/02 04:12:46;;;;;;;16.33;13.70;;;;;;;15.95;78.70;99001.29;254790;1104;115744;-65
2021/08/02 04:17:48;;;;;;;17.05;12.73;;;;;;;15.94;78.71;99008.55;255005;1099;116129;-65
2021/08/02 04:22:51;;;;;;;16.73;14.93;;;;;;;15.97;78.67;99016.05;254589;1096;115727;-65
2021/08/02 04:27:55;;;;;;;17.10;15.33;;;;;;;16.06;79.16;99018.91;254756;1103;116221;-64
2021/08/02 04:32:59;;;;;;;16.78;15.13;;;;;;;16.10;79.08;99028.80;254343;1099;115213;-65
2021/08/02 04:38:03;;;;;;;16.23;14.60;;;;;;;16.09;79.28;99029.09;254515;1103;116107;-66
2021/08/02 04:43:07;;;;;;;17.73;15.97;;;;;;;16.10;78.91;99030.69;254852;1104;116362;-65
2021/08/02 04:48:11;;;;;;;16.45;14.55;;;;;;;16.19;78.84;99034.35;254491;1103;115767;-65
2021/08/02 04:53:14;;;;;;;17.53;14.75;;;;;;;16.23;78.86;99046.11;255098;1096;115603;-65
2021/08/02 04:58:16;;;;;;;20.25;14.80;;;;;;;16.28;78.90;99045.24;254775;1104;116506;-65
2021/08/02 05:03:19;;;;;;;15.28;12.85;;;;;;;16.41;78.82;99050.73;255995;1103;115763;-66
2021/08/02 05:08:27;;;;;;;15.80;13.83;;;;;;;16.54;79.01;99053.77;255361;1103;115952;-65
2021/08/02 05:13:30;;;;;;;18.55;13.40;;;;;;;16.65;78.72;99057.96;256124;1102;115694;-66
2021/08/02 05:18:33;;;;;;;15.05;13.65;;;;;;;16.77;78.86;99061.03;256037;1104;115586;-66
2021/08/02 05:23:35;;;;;;;21.55;14.50;;;;;;;16.80;78.57;99061.25;257057;1104;116355;-67
2021/08/02 05:28:38;;;;;;;16.28;14.28;;;;;;;16.91;78.45;99069.95;256569;1104;117429;-65
2021/08/02 05:33:41;;;;;;;17.83;13.03;;;;;;;16.97;78.47;99071.48;257245;1104;116384;-64
2021/08/02 05:38:44;;;;;;;12.83;11.58;;;;;;;17.05;78.10;99086.98;257084;1103;117397;-64
2021/08/02 05:43:47;;;;;;;12.70;11.50;;;;;;;17.12;78.24;99087.39;253629;1103;115603;-66
2021/08/02 05:48:49;;;;;;;13.33;11.98;;;;;;;17.23;78.01;99084.55;256000;1104;116501;-66
2021/08/02 05:53:52;;;;;;;13.60;12.20;;;;;;;17.29;78.01;99092.25;256663;1104;115452;-64
2021/08/02 05:58:56;;;;;;;13.85;12.33;;;;;;;17.27;77.59;99094.44;255027;1104;115743;-67
2021/08/02 06:04:00;;;;;;;11.33;10.23;;;;;;;17.35;77.58;99096.47;256453;1103;115615;-67
2021/08/02 06:09:03;;;;;;;11.90;10.70;;;;;;;17.39;77.38;99097.48;256182;1104;116145;-67
2021/08/02 06:14:06;;;;;;;12.63;10.47;;;;;;;17.50;77.15;99103.48;254982;1104;115191;-67
2021/08/02 06:19:10;;;;;;;11.33;10.43;;;;;;;17.57;77.05;99103.91;254344;1104;115721;-67
2021/08/02 06:24:14;;;;;;;11.85;10.05;;;;;;;17.56;77.15;99106.90;255391;1103;115985;-67
2021/08/02 06:29:17;;;;;;;16.28;9.55;;;;;;;17.64;76.97;99108.92;255959;1104;115911;-67
2021/08/02 06:34:20;;;;;;;13.18;10.98;;;;;;;17.79;76.95;99106.77;254311;1104;116294;-67
2021/08/02 06:39:23;;;;;;;12.28;10.60;;;;;;;17.93;76.78;99117.59;254466;1102;115880;-67
2021/08/02 06:44:26;;;;;;;11.43;10.23;;;;;;;18.01;76.07;99116.11;256195;1103;115542;-67
2021/08/02 06:49:31;;;;;;;12.95;11.85;;;;;;;18.07;76.71;99122.98;255191;1103;115717;-67
2021/08/02 06:54:34;;;;;;;;;;;;;;;18.20;76.10;99130.30;254860;1104;115548;-66
2021/08/02 06:59:37;;;;;;;10.98;9.93;;;;;;;18.22;75.80;99130.80;258131;1103;102735;-67
2021/08/02 07:04:40;;;;;;;10.97;10.03;;;;;;;18.39;75.55;99144.48;254888;1104;121570;-67
2021/08/02 07:09:43;;;;;;;11.58;10.58;;;;;;;18.52;75.79;99142.88;257045;1103;116491;-67
2021/08/02 07:14:46;;;;;;;10.13;8.95;;;;;;;18.65;75.30;99154.81;257161;1103;115811;-68
2021/08/02 07:19:49;;;;;;;10.23;9.28;;;;;;;18.69;75.04;99161.18;257097;1104;116820;-66
2021/08/02 07:24:53;;;;;;;9.98;9.05;;;;;;;18.76;74.74;99159.67;257114;1104;115497;-67
2021/08/02 07:29:56;;;;;;;13.73;10.10;;;;;;;18.83;74.75;99162.77;257139;1103;115422;-67
2021/08/02 07:34:59;;;;;;;11.70;9.03;;;;;;;19.00;74.33;99164.83;257176;1102;116142;-66
2021/08/02 07:40:02;;;;;;;10.00;8.83;;;;;;;19.13;74.26;99164.00;257111;1102;115925;-66
2021/08/02 07:45:06;;;;;;;14.23;9.35;;;;;;;19.31;74.37;99169.54;255024;1103;115644;-67
2021/08/02 07:50:11;;;;;;;9.05;8.25;;;;;;;19.38;73.60;99175.33;255562;1103;115427;-67
2021/08/02 07:55:15;;;;;;;9.58;8.68;;;;;;;19.48;73.29;99175.09;256389;1104;115089;-66
2021/08/02 08:00:18;;;;;;;7.28;6.70;;;;;;;19.60;72.85;99178.06;254087;1104;114997;-66
2021/08/02 08:05:20;;;;;;;9.15;8.33;;;;;;;19.71;72.80;99178.63;254325;1103;115160;-66
2021/08/02 08:10:25;;;;;;;8.75;7.95;;;;;;;19.84;72.40;99175.86;255932;1104;135069;-67
2021/08/02 08:15:28;;;;;;;8.00;7.40;;;;;;;20.06;72.09;99182.33;254347;1103;114896;-67
2021/08/02 08:20:31;;;;;;;9.03;8.20;;;;;;;20.30;72.30;99173.84;256281;1104;115454;-67
2021/08/02 08:25:35;;;;;;;7.70;7.00;;;;;;;20.64;71.73;99182.12;255245;1102;115124;-67
2021/08/02 08:30:38;;;;;;;7.55;6.85;;;;;;;21.20;71.70;99183.16;254148;1104;116365;-67
2021/08/02 08:35:41;;;;;;;9.40;8.38;;;;;;;21.59;70.65;99195.80;254537;1104;115800;-67
2021/08/02 08:40:44;;;;;;;7.75;7.05;;;;;;;21.81;70.13;99201.03;256589;1102;116128;-67
2021/08/02 08:45:47;;;;;;;8.05;7.40;;;;;;;21.48;69.26;99217.01;254069;1103;115548;-67
2021/08/02 08:50:50;;;;;;;7.93;7.43;;;;;;;21.22;68.89;99224.34;254305;1104;114634;-67
2021/08/02 08:55:53;;;;;;;7.15;6.73;;;;;;;21.11;68.86;99231.93;256912;1103;115661;-67
2021/08/02 09:01:01;;;;;;;6.78;6.18;;;;;;;21.48;68.63;99227.06;256922;1104;115925;-66
2021/08/02 09:06:07;;;;;;;5.93;5.43;;;;;;;22.19;68.59;99230.20;254724;1104;115209;-66
2021/08/02 09:11:25;;;;;;;7.08;6.35;;;;;;;22.51;67.05;99245.11;253590;1104;115018;-66
2021/08/02 09:16:29;;;;;;;7.30;6.60;;;;;;;22.46;66.58;99251.52;253675;1104;115245;-66
2021/08/02 09:21:54;;;;;;;6.10;5.78;;;;;;;22.33;65.81;99255.22;257297;1102;116928;-65
2021/08/02 09:26:58;;;;;;;6.83;6.35;;;;;;;22.52;65.48;99271.16;257212;1103;115560;-68
2021/08/02 09:32:08;;;;;;;7.00;6.50;;;;;;;22.73;64.67;99274.74;257305;1103;115778;-68
2021/08/02 09:37:24;;;;;;;5.85;5.40;;;;;;;22.77;63.42;99264.81;257042;1102;115564;-70
2021/08/02 09:42:28;;;;;;;6.00;5.50;;;;;;;22.86;63.57;99269.45;257101;1103;116815;-69
2021/08/02 09:47:52;;;;;;;8.58;4.83;;;;;;;23.02;63.25;99273.99;257036;1103;116134;-69
2021/08/02 09:52:55;;;;;;;6.03;5.63;;;;;;;23.03;61.98;99291.89;257018;1104;115437;-69
2021/08/02 09:57:58;;;;;;;6.68;6.18;;;;;;;23.02;61.99;99295.73;256113;1103;116015;-69
2021/08/02 10:03:15;;;;;;;6.03;5.58;;;;;;;22.86;61.51;99297.42;253532;1104;117050;-68
2021/08/02 10:08:20;;;;;;;4.23;4.03;;;;;;;22.65;60.67;99305.45;254072;1104;115326;-67
2021/08/02 10:13:25;;;;;;;5.68;3.95;;;;;;;22.61;61.06;99309.16;254291;1104;115262;-67
2021/08/02 10:18:29;;;;;;;4.60;4.03;;;;;;;22.80;60.86;99304.95;257218;1103;115625;-67
2021/08/02 10:23:33;;;;;;;9.15;5.13;;;;;;;23.01;60.60;99312.38;254322;1104;115069;-68
2021/08/02 10:28:36;;;;;;;5.13;4.73;;;;;;;23.08;59.90;99310.74;257152;1103;115768;-67
2021/08/02 10:33:39;;;;;;;4.25;3.78;;;;;;;22.87;59.68;99311.81;257175;1104;117688;-67
2021/08/02 10:38:44;;;;;;;4.03;3.73;;;;;;;22.64;59.52;99314.72;255407;1104;116081;-67
2021/08/02 10:43:47;;;;;;;3.10;2.90;;;;;;;22.63;59.99;99313.13;255543;1104;115441;-68
2021/08/02 10:48:53;;;;;;;11.18;3.58;;;;;;;23.27;60.52;99309.52;256064;1104;117464;-66
2021/08/02 10:54:04;;;;;;;3.17;2.97;;;;;;;23.64;59.14;99316.02;254147;1104;115536;-70
2021/08/02 10:59:06;;;;;;;3.78;2.80;;;;;;;24.08;58.29;99303.66;254273;1104;116347;-67
2021/08/02 11:04:14;;;;;;;2.68;2.48;;;;;;;23.94;57.04;99314.03;253734;1097;116175;-67
2021/08/02 11:09:28;;;;;;;2.60;2.40;;;;;;;23.80;56.77;99308.88;254889;1104;116336;-68
2021/08/02 11:14:31;;;;;;;2.03;1.90;;;;;;;23.67;56.70;99308.00;255785;1104;115902;-67
2021/08/02 11:19:35;;;;;;;2.68;2.48;;;;;;;23.65;56.76;99323.06;255716;1104;116816;-68
2021/08/02 11:24:51;;;;;;;2.38;1.83;;;;;;;23.65;56.38;99312.98;254268;1103;116712;-68
2021/08/02 11:29:55;;;;;;;4.03;2.60;;;;;;;23.96;56.18;99311.77;257236;1104;117042;-69
2021/08/02 11:34:59;;;;;;;2.23;2.00;;;;;;;23.85;55.21;99317.61;257307;1103;116194;-68
2021/08/02 11:40:06;;;;;;;3.10;2.70;;;;;;;23.56;55.04;99325.83;256616;1103;115967;-66
2021/08/02 11:45:09;;;;;;;1.65;1.65;;;;;;;23.27;55.36;99323.91;257241;1103;116222;-67
2021/08/02 11:50:14;;;;;;;2.68;2.58;;;;;;;22.98;55.71;99332.84;257501;1104;116473;-67
2021/08/02 11:55:17;;;;;;;2.45;2.25;;;;;;;23.05;56.17;99321.47;257223;1104;116411;-66
2021/08/02 12:00:20;;;;;;;3.65;2.20;;;;;;;23.20;55.88;99315.49;255669;1104;116706;-66
2021/08/02 12:05:24;;;;;;;3.33;2.70;;;;;;;23.68;56.21;99315.03;253531;1104;116587;-67
2021/08/02 12:10:39;;;;;;;3.08;2.78;;;;;;;23.71;55.82;99311.66;256283;1104;115969;-67
2021/08/02 12:16:12;;;;;;;3.28;3.05;;;;;;;23.28;55.19;99319.27;253536;1103;116926;-68
2021/08/02 12:21:22;;;;;;;2.35;2.15;;;;;;;23.04;55.62;99317.95;253679;1100;115116;-67
2021/08/02 12:26:25;;;;;;;2.78;2.58;;;;;;;22.98;56.33;99315.74;257173;1101;116529;-67
2021/08/02 12:31:28;;;;;;;1.87;1.77;;;;;;;23.14;56.42;99309.44;257007;1104;115253;-67
2021/08/02 12:36:32;;;;;;;2.30;2.20;;;;;;;23.36;56.63;99311.06;255446;1103;115604;-68
2021/08/02 12:41:38;;;;;;;2.43;2.33;;;;;;;24.02;55.95;99305.00;253497;1104;116447;-67
2021/08/02 12:47:00;;;;;;;4.58;2.55;;;;;;;24.57;55.78;99301.09;254567;1102;116232;-68
2021/08/02 12:52:11;;;;;;;3.40;2.87;;;;;;;24.95;54.56;99292.63;253693;1104;116821;-67
2021/08/02 12:57:16;;;;;;;2.75;2.40;;;;;;;24.79;53.70;99289.77;257045;1104;116101;-67
2021/08/02 13:02:18;;;;;;;2.35;2.25;;;;;;;24.92;53.60;99287.85;256247;1098;116398;-67
2021/08/02 13:07:23;;;;;;;2.98;2.75;;;;;;;25.16;53.18;99282.41;255795;1096;116341;-69
2021/08/02 13:12:27;;;;;;;3.68;2.58;;;;;;;25.12;52.87;99293.20;257038;1104;115751;-69
2021/08/02 13:17:30;;;;;;;4.85;2.10;;;;;;;24.70;52.23;99275.47;257140;1103;116040;-67
2021/08/02 13:22:45;;;;;;;2.93;2.23;;;;;;;24.43;52.37;99283.16;254493;1103;115235;-66
2021/08/02 13:27:48;;;;;;;1.90;1.80;;;;;;;24.16;52.82;99273.61;254088;1096;115058;-67
2021/08/02 13:32:56;;;;;;;4.75;1.73;;;;;;;24.19;53.40;99280.31;253826;1098;116182;-69
2021/08/02 13:38:00;;;;;;;1.30;1.30;;;;;;;24.07;52.64;99291.18;253841;1104;116142;-67
2021/08/02 13:43:03;;;;;;;1.10;1.10;;;;;;;23.74;51.97;99291.95;255510;1104;116175;-67
2021/08/02 13:48:07;;;;;;;1.90;1.63;;;;;;;23.42;52.47;99295.35;253478;1103;116223;-68
2021/08/02 13:53:10;;;;;;;14.23;2.18;;;;;;;23.20;52.19;99284.78;253476;1098;116339;-68
2021/08/02 13:58:13;;;;;;;1.30;1.10;;;;;;;23.04;52.81;99296.20;253609;1103;115966;-67
2021/08/02 14:03:17;;;;;;;1.43;1.33;;;;;;;22.73;52.70;99331.00;257187;1104;117277;-68
2021/08/02 14:08:21;;;;;;;5.35;1.40;;;;;;;22.29;53.16;99330.33;256349;1103;115684;-67
2021/08/02 14:13:25;;;;;;;1.47;1.40;;;;;;;21.95;53.88;99344.69;257226;1104;116096;-67
2021/08/02 14:18:51;;;;;;;0.73;0.73;;;;;;;21.66;54.54;99339.09;255140;1098;116048;-68
2021/08/02 14:23:54;;;;;;;1.25;1.15;;;;;;;21.22;55.14;99331.96;253540;1103;115753;-67
2021/08/02 14:28:57;;;;;;;0.90;0.90;;;;;;;20.97;55.93;99342.38;257263;1104;116142;-67
2021/08/02 14:34:00;;;;;;;1.35;1.23;;;;;;;20.71;56.47;99353.09;256994;1103;118148;-66
2021/08/02 14:39:05;;;;;;;1.25;1.20;;;;;;;20.60;57.11;99369.91;257117;1102;115099;-67
2021/08/02 14:44:09;;;;;;;1.03;0.98;;;;;;;20.86;57.82;99365.42;255828;1104;114735;-66
2021/08/02 14:49:13;;;;;;;3.30;1.13;;;;;;;21.11;57.71;99372.86;253659;1104;115760;-68
2021/08/02 14:54:18;;;;;;;1.10;1.10;;;;;;;21.41;58.03;99381.28;253338;1104;114525;-68
2021/08/02 14:59:23;;;;;;;1.23;1.13;;;;;;;21.56;57.48;99385.48;253514;1096;115134;-68
2021/08/02 15:04:27;;;;;;;1.88;0.80;;;;;;;21.48;57.46;99378.92;253600;1097;115418;-66
2021/08/02 15:09:31;;;;;;;3.63;1.25;;;;;;;21.31;57.73;99370.75;254635;1102;115468;-67
2021/08/02 15:14:34;;;;;;;2.25;1.28;;;;;;;21.14;57.75;99371.44;255592;1102;115879;-66
2021/08/02 15:24:58;;;;;;;1.10;1.10;;;;;;;20.66;58.05;99358.64;262240;1093;102928;-68
2021/08/02 15:30:09;;;;;;;1.40;1.27;;;;;;;20.46;58.92;99351.05;254765;1100;115328;-68
2021/08/02 15:35:13;;;;;;;1.45;1.40;;;;;;;20.43;59.99;99355.16;254851;1104;115066;-69
2021/08/02 15:40:20;;;;;;;1.80;1.70;;;;;;;20.45;59.91;99352.95;255289;1104;116105;-68
2021/08/02 15:45:25;;;;;;;1.50;1.40;;;;;;;20.70;60.10;99356.91;254287;1104;115645;-66
2021/08/02 15:50:33;;;;;;;1.20;1.17;;;;;;;20.84;60.04;99344.06;255517;1101;115532;-66
2021/08/02 15:55:40;;;;;;;1.23;1.23;;;;;;;20.82;60.01;99345.48;254893;1104;117134;-67
2021/08/02 16:01:01;;;;;;;2.63;1.73;;;;;;;20.72;60.52;99346.56;257071;1104;117561;-67
2021/08/02 16:06:07;;;;;;;3.97;2.27;;;;;;;20.67;60.61;99345.90;254615;1104;116521;-67
2021/08/02 16:11:13;;;;;;;3.03;2.03;;;;;;;20.79;60.37;99354.25;256420;1104;116424;-66
2021/08/02 16:16:16;;;;;;;3.18;1.44;;;;;;;20.77;59.81;99359.98;254326;1098;115947;-67
2021/08/02 16:21:23;;;;;;;1.90;1.80;;;;;;;20.77;59.62;99364.60;254346;1104;115395;-66
2021/08/02 16:26:28;;;;;;;2.50;2.33;;;;;;;20.66;59.47;99368.67;257126;1104;116119;-66
2021/08/02 16:31:33;;;;;;;2.30;1.50;;;;;;;20.59;59.27;99371.81;254419;1104;117360;-65
2021/08/02 16:36:37;;;;;;;4.07;2.10;;;;;;;20.57;59.33;99367.81;256450;1104;116027;-65
2021/08/02 16:41:41;;;;;;;2.50;1.83;;;;;;;20.53;58.93;99374.95;255455;1103;115690;-65
2021/08/02 16:46:44;;;;;;;2.68;2.25;;;;;;;20.44;58.83;99364.89;254132;1096;116588;-66
2021/08/02 16:51:48;;;;;;;7.93;1.97;;;;;;;20.34;59.03;99369.70;254812;1103;115904;-65
2021/08/02 16:56:51;;;;;;;2.10;2.00;;;;;;;20.18;59.38;99370.06;255377;1104;116022;-65
2021/08/02 17:01:56;;;;;;;2.37;2.27;;;;;;;20.06;59.76;99377.94;256055;1103;117215;-66
2021/08/02 17:07:00;;;;;;;3.15;2.68;;;;;;;19.92;60.35;99376.36;254183;1103;115326;-67
2021/08/02 17:12:06;;;;;;;2.43;2.23;;;;;;;19.84;60.74;99381.42;255499;1103;115488;-64
2021/08/02 17:17:11;;;;;;;3.60;2.53;;;;;;;19.82;61.29;99380.92;254620;1102;116430;-66
2021/08/02 17:22:17;;;;;;;2.67;2.47;;;;;;;19.70;61.57;99386.04;254246;1103;115797;-65
2021/08/02 17:27:21;;;;;;;3.03;2.83;;;;;;;19.54;61.77;99387.48;255718;1102;114711;-66
2021/08/02 17:32:25;;;;;;;3.23;3.00;;;;;;;19.42;62.09;99381.73;255607;1104;215409;-67
2021/08/02 17:37:29;;;;;;;3.05;2.85;;;;;;;19.38;62.49;99381.54;255007;1103;115243;-68
2021/08/02 17:42:31;;;;;;;3.23;3.03;;;;;;;19.28;62.77;99389.84;254195;1104;115560;-67
2021/08/02 17:47:34;;;;;;;3.45;3.18;;;;;;;19.21;62.96;99394.86;254075;1104;114848;-67
2021/08/02 17:52:38;;;;;;;6.03;3.08;;;;;;;19.09;63.62;99391.84;255832;1103;114361;-68
2021/08/02 17:57:43;;;;;;;3.63;2.93;;;;;;;18.93;64.00;99395.94;254411;1104;115219;-66
2021/08/02 18:02:47;;;;;;;3.18;2.73;;;;;;;18.77;64.25;99392.69;257328;1103;114531;-67
2021/08/02 18:07:52;;;;;;;5.23;2.57;;;;;;;18.65;63.89;99398.55;256190;1103;115412;-67
2021/08/02 18:12:55;;;;;;;3.63;3.40;;;;;;;18.54;64.48;99401.70;256551;1102;114744;-67
2021/08/02 18:17:58;;;;;;;3.47;3.17;;;;;;;18.35;64.69;99399.81;257134;1103;115642;-67
2021/08/02 18:23:01;;;;;;;3.50;3.30;;;;;;;18.15;64.99;99408.23;257068;1104;114698;-67
2021/08/02 18:28:05;;;;;;;6.43;3.03;;;;;;;18.08;65.66;99415.88;255411;1104;115417;-67
2021/08/02 18:33:07;;;;;;;2.77;2.57;;;;;;;17.98;65.78;99416.84;255440;1102;116193;-67
2021/08/02 18:38:11;;;;;;;3.08;2.68;;;;;;;17.86;65.85;99421.85;255386;1103;115638;-67
2021/08/02 18:43:14;;;;;;;3.47;3.27;;;;;;;17.70;66.16;99429.35;255345;1096;114499;-67
2021/08/02 18:48:17;;;;;;;9.98;2.83;;;;;;;17.61;66.33;99436.43;254244;1104;115011;-67
2021/08/02 18:53:20;;;;;;;3.38;3.18;;;;;;;17.47;66.71;99439.00;254755;1104;115471;-66
2021/08/02 18:58:23;;;;;;;4.98;3.75;;;;;;;17.39;66.98;99442.35;255506;1102;114621;-67
2021/08/02 19:03:26;;;;;;;11.40;3.60;;;;;;;17.34;67.03;99444.30;255182;1103;114999;-67
2021/08/02 19:08:32;;;;;;;3.57;3.37;;;;;;;17.32;66.90;99449.16;254421;1104;116116;-67
2021/08/02 19:13:37;;;;;;;6.27;3.10;;;;;;;17.28;67.64;99450.82;255610;1103;115401;-67
2021/08/02 19:19:11;;;;;;;4.20;3.75;;;;;;;17.24;67.56;99455.16;254144;1104;115135;-67
2021/08/02 19:24:15;;;;;;;3.63;3.33;;;;;;;17.16;67.66;99470.85;254839;1104;115272;-67
2021/08/02 19:29:19;;;;;;;3.73;3.38;;;;;;;17.03;67.63;99476.92;254351;1103;115090;-67
2021/08/02 19:34:23;;;;;;;6.80;4.28;;;;;;;16.90;67.79;99480.25;256038;1103;115012;-66
2021/08/02 19:39:27;;;;;;;3.77;3.20;;;;;;;16.76;67.64;99485.50;254236;1104;117708;-67
2021/08/02 19:44:55;;;;;;;5.50;3.67;;;;;;;16.69;68.04;99486.89;255552;1103;115295;-67
2021/08/02 19:50:06;;;;;;;7.15;4.13;;;;;;;16.58;67.81;99488.81;254999;1104;115091;-66
2021/08/02 19:55:14;;;;;;;5.20;4.35;;;;;;;16.48;68.00;99495.09;256218;1102;116029;-67
2021/08/02 20:00:22;;;;;;;3.68;3.38;;;;;;;16.44;68.03;99487.85;255775;1100;115255;-67
2021/08/02 20:05:26;;;;;;;3.60;3.30;;;;;;;16.35;68.40;99497.58;257235;1103;114616;-67
2021/08/02 20:10:38;;;;;;;5.33;3.70;;;;;;;16.24;68.24;99499.52;256216;1102;116833;-67
2021/08/02 20:15:44;;;;;;;4.08;3.73;;;;;;;16.13;68.21;99506.85;257079;1103;136821;-66
2021/08/02 20:21:04;;;;;;;4.03;3.63;;;;;;;15.98;68.37;99508.79;257229;1103;115174;-67
2021/08/02 20:26:13;;;;;;;7.43;4.10;;;;;;;15.90;68.70;99522.83;256823;1104;115210;-66
2021/08/02 20:31:18;;;;;;;2.87;2.73;;;;;;;15.83;68.27;99515.85;254999;1104;115432;-66
2021/08/02 20:36:21;;;;;;;8.55;3.65;;;;;;;15.77;69.04;99516.94;256031;1103;114385;-65
2021/08/02 20:41:28;;;;;;;9.63;4.20;;;;;;;15.67;68.82;99514.28;254140;1103;115211;-66
2021/08/02 20:46:32;;;;;;;4.27;3.83;;;;;;;15.56;69.10;99519.94;254817;1100;115564;-66
2021/08/02 20:51:37;;;;;;;5.65;4.33;;;;;;;15.35;69.05;99519.16;254213;1104;114608;-65
2021/08/02 20:56:45;;;;;;;9.23;4.43;;;;;;;15.21;69.19;99513.55;255678;1104;115229;-66
2021/08/02 21:02:12;;;;;;;4.30;3.90;;;;;;;15.19;69.59;99515.70;255387;1102;115676;-66
2021/08/02 21:07:41;;;;;;;4.55;4.18;;;;;;;15.14;69.96;99529.92;254428;1103;114851;-65
2021/08/02 21:13:02;;;;;;;3.73;3.20;;;;;;;15.06;69.93;99524.28;255304;1103;115498;-66
2021/08/02 21:18:10;;;;;;;7.10;3.90;;;;;;;15.02;69.94;99518.64;254967;1104;114578;-65
2021/08/02 21:23:18;;;;;;;9.55;4.45;;;;;;;14.97;70.82;99524.04;254270;1096;114971;-67
2021/08/02 21:28:26;;;;;;;5.08;4.55;;;;;;;14.90;70.74;99528.86;254205;1100;114960;-67
2021/08/02 21:33:29;;;;;;;7.03;4.35;;;;;;;14.86;70.54;99535.83;255542;1103;115242;-65
2021/08/02 21:38:35;;;;;;;3.97;3.67;;;;;;;14.88;71.28;99538.25;255352;1104;115514;-65
2021/08/02 21:43:39;;;;;;;5.53;4.97;;;;;;;14.89;71.02;99543.35;255882;1102;114621;-65
2021/08/02 21:48:42;;;;;;;4.47;4.17;;;;;;;14.82;70.70;99548.97;255690;1104;114131;-66
2021/08/02 21:53:46;;;;;;;9.88;5.25;;;;;;;14.83;71.31;99552.47;255271;1104;114924;-65
2021/08/02 21:58:50;;;;;;;5.10;4.57;;;;;;;14.89;71.26;99559.45;254742;1104;115123;-65
2021/08/02 22:03:54;;;;;;;5.63;4.67;;;;;;;14.88;71.13;99560.53;255467;1096;115253;-66
2021/08/02 22:08:57;;;;;;;5.27;4.77;;;;;;;14.86;71.09;99561.86;256485;1103;114556;-65
2021/08/02 22:14:00;;;;;;;5.50;4.27;;;;;;;14.79;71.35;99568.29;255590;1104;115433;-66
2021/08/02 22:19:03;;;;;;;6.08;3.98;;;;;;;14.73;71.22;99568.54;257285;1104;115121;-65
2021/08/02 22:24:06;;;;;;;4.17;3.53;;;;;;;14.67;70.98;99570.44;257226;1104;115159;-65
2021/08/02 22:29:09;;;;;;;5.23;4.47;;;;;;;14.60;71.27;99574.44;256484;1104;115040;-65
2021/08/02 22:34:12;;;;;;;8.55;4.80;;;;;;;14.53;70.92;99576.55;256161;1104;115432;-65
2021/08/02 22:39:18;;;;;;;4.17;3.77;;;;;;;14.44;70.79;99571.70;257190;1103;116073;-65
2021/08/02 22:44:21;;;;;;;6.90;3.80;;;;;;;14.35;71.37;99573.27;255456;1104;115537;-67
2021/08/02 22:49:27;;;;;;;4.53;3.37;;;;;;;14.28;70.91;99580.74;255871;1103;114870;-65
2021/08/02 22:54:33;;;;;;;3.95;3.65;;;;;;;14.12;71.03;99579.86;255397;1104;114555;-65
2021/08/02 23:00:00;;;;;;;4.23;3.43;;;;;;;13.98;71.20;99580.61;255027;1096;114989;-65
2021/08/02 23:05:03;;;;;;;4.63;3.98;;;;;;;13.79;71.07;99588.26;255588;1102;115879;-64
2021/08/02 23:10:07;;;;;;;7.10;4.25;;;;;;;13.67;70.91;99587.67;255710;1096;115459;-65
2021/08/02 23:15:16;;;;;;;5.30;4.80;;;;;;;13.60;71.34;99595.92;254478;1104;115061;-65
2021/08/02 23:20:22;;;;;;;10.73;3.97;;;;;;;13.52;71.53;99592.91;255046;1102;114903;-65
2021/08/02 23:25:25;;;;;;;4.50;4.10;;;;;;;13.43;71.71;99597.95;254311;1096;114874;-66